sensor_id;sensor_type;location;lat;lon;timestamp;pressure;altitude;pressure_sealevel;temperature;humidity
7157;BME280;3620;49.862;8.758;2023-02-18T00:01:18;99989.47;;;13.79;100.00
7157;BME280;3620;49.862;8.758;2023-02-18T00:03:46;99988.31;;;14.03;100.00
7157;BME280;3620;49.862;8.758;2023-02-18T00:06:14;99979.88;;;13.95;100.00
7157;BME280;3620;49.862;8.758;2023-02-18T00:08:42;99979.56;;;13.82;100.00
7157;BME280;3620;49.862;8.758;2023-02-18T00:11:10;99991.31;;;13.77;100.00
7157;BME280;3620;49.862;8.758;2023-02-18T00:13:38;99991.91;;;14.02;100.00
7157;BME280;3620;49.862;8.758;2023-02-18T00:16:06;99988.28;;;13.84;100.00
7157;BME280;3620;49.862;8.758;2023-02-18T00:18:33;99992.59;;;13.87;100.00
7157;BME280;3620;49.862;8.758;2023-02-18T00:21:02;99980.78;;;13.94;100.00
7157;BME280;3620;49.862;8.758;2023-02-18T00:23:28;99991.44;;;13.74;100.00
7157;BME280;3620;49.862;8.758;2023-02-18T00:25:59;99994.41;;;13.86;100.00
7157;BME280;3620;49.862;8.758;2023-02-18T00:28:27;99997.19;;;14.02;100.00
7157;BME280;3620;49.862;8.758;2023-02-18T00:30:54;99998.09;;;14.01;100.00
7157;BME280;3620;49.862;8.758;2023-02-18T00:33:20;99993.03;;;14.15;100.00
7157;BME280;3620;49.862;8.758;2023-02-18T00:35:47;99995.19;;;13.88;100.00
7157;BME280;3620;49.862;8.758;2023-02-18T00:38:14;99992.88;;;13.81;100.00
7157;BME280;3620;49.862;8.758;2023-02-18T00:40:40;99990.38;;;14.34;100.00
7157;BME280;3620;49.862;8.758;2023-02-18T00:43:07;99987.88;;;14.12;100.00
7157;BME280;3620;49.862;8.758;2023-02-18T00:45:35;99989.75;;;13.73;100.00
7157;BME280;3620;49.862;8.758;2023-02-18T00:48:02;99992.75;;;13.84;100.00
7157;BME280;3620;49.862;8.758;2023-02-18T00:50:29;99976.94;;;13.64;100.00
7157;BME280;3620;49.862;8.758;2023-02-18T00:52:55;99988.00;;;13.53;100.00
7157;BME280;3620;49.862;8.758;2023-02-18T00:55:22;99978.59;;;13.66;100.00
7157;BME280;3620;49.862;8.758;2023-02-18T00:57:48;99977.00;;;13.81;100.00
7157;BME280;3620;49.862;8.758;2023-02-18T01:00:15;99983.00;;;13.66;100.00
7157;BME280;3620;49.862;8.758;2023-02-18T01:02:43;99979.13;;;13.54;100.00
7157;BME280;3620;49.862;8.758;2023-02-18T01:05:10;99982.03;;;13.68;100.00
7157;BME280;3620;49.862;8.758;2023-02-18T01:07:37;99981.56;;;13.59;100.00
7157;BME280;3620;49.862;8.758;2023-02-18T01:10:04;99985.84;;;13.43;100.00
7157;BME280;3620;49.862;8.758;2023-02-18T01:12:31;99993.88;;;13.60;100.00
7157;BME280;3620;49.862;8.758;2023-02-18T01:14:57;99994.78;;;13.59;100.00
7157;BME280;3620;49.862;8.758;2023-02-18T01:17:24;99999.41;;;13.54;100.00
7157;BME280;3620;49.862;8.758;2023-02-18T01:19:52;99993.88;;;13.60;100.00
7157;BME280;3620;49.862;8.758;2023-02-18T01:22:18;100004.16;;;13.66;100.00
7157;BME280;3620;49.862;8.758;2023-02-18T01:24:45;99992.81;;;13.64;100.00
7157;BME280;3620;49.862;8.758;2023-02-18T01:27:12;99986.88;;;13.59;100.00
7157;BME280;3620;49.862;8.758;2023-02-18T01:29:38;99985.72;;;13.83;100.00
7157;BME280;3620;49.862;8.758;2023-02-18T01:32:05;99986.88;;;13.77;100.00
7157;BME280;3620;49.862;8.758;2023-02-18T01:34:32;99986.88;;;13.77;100.00
7157;BME280;3620;49.862;8.758;2023-02-18T01:37:00;99985.75;;;13.64;100.00
7157;BME280;3620;49.862;8.758;2023-02-18T01:39:26;99985.50;;;13.69;100.00
7157;BME280;3620;49.862;8.758;2023-02-18T01:41:53;99978.16;;;13.94;100.00
7157;BME280;3620;49.862;8.758;2023-02-18T01:44:22;99981.34;;;14.19;100.00
7157;BME280;3620;49.862;8.758;2023-02-18T01:46:50;99965.22;;;13.88;100.00
7157;BME280;3620;49.862;8.758;2023-02-18T01:49:18;99966.91;;;13.89;100.00
7157;BME280;3620;49.862;8.758;2023-02-18T01:51:47;99969.50;;;13.72;100.00
7157;BME280;3620;49.862;8.758;2023-02-18T01:54:19;99967.75;;;13.91;100.00
7157;BME280;3620;49.862;8.758;2023-02-18T01:56:50;99971.28;;;13.90;100.00
7157;BME280;3620;49.862;8.758;2023-02-18T01:59:22;99979.41;;;14.41;100.00
7157;BME280;3620;49.862;8.758;2023-02-18T02:01:49;99959.69;;;14.11;100.00
7157;BME280;3620;49.862;8.758;2023-02-18T02:04:17;99944.06;;;14.42;100.00
7157;BME280;3620;49.862;8.758;2023-02-18T02:06:43;99953.81;;;14.23;100.00
7157;BME280;3620;49.862;8.758;2023-02-18T02:09:12;99955.44;;;13.90;100.00
7157;BME280;3620;49.862;8.758;2023-02-18T02:14:46;99937.00;;;13.70;100.00
7157;BME280;3620;49.862;8.758;2023-02-18T02:17:21;99928.41;;;13.65;100.00
7157;BME280;3620;49.862;8.758;2023-02-18T02:20:20;99929.13;;;13.87;100.00
7157;BME280;3620;49.862;8.758;2023-02-18T02:23:25;99926.66;;;14.01;100.00
7157;BME280;3620;49.862;8.758;2023-02-18T02:26:13;99925.25;;;13.94;100.00
7157;BME280;3620;49.862;8.758;2023-02-18T02:29:09;99936.19;;;14.22;100.00
7157;BME280;3620;49.862;8.758;2023-02-18T02:32:04;99933.22;;;14.11;100.00
7157;BME280;3620;49.862;8.758;2023-02-18T02:34:46;99926.34;;;13.90;100.00
7157;BME280;3620;49.862;8.758;2023-02-18T02:37:18;99916.84;;;13.86;100.00
7157;BME280;3620;49.862;8.758;2023-02-18T02:40:02;99926.91;;;13.78;100.00
7157;BME280;3620;49.862;8.758;2023-02-18T02:42:41;99918.84;;;13.81;100.00
7157;BME280;3620;49.862;8.758;2023-02-18T02:45:17;99923.34;;;13.79;100.00
7157;BME280;3620;49.862;8.758;2023-02-18T02:47:50;99913.13;;;13.53;100.00
7157;BME280;3620;49.862;8.758;2023-02-18T02:50:24;99913.53;;;13.62;100.00
7157;BME280;3620;49.862;8.758;2023-02-18T02:52:56;99907.47;;;13.79;100.00
7157;BME280;3620;49.862;8.758;2023-02-18T02:55:24;99903.09;;;13.78;100.00
7157;BME280;3620;49.862;8.758;2023-02-18T02:57:52;99904.97;;;13.76;100.00
7157;BME280;3620;49.862;8.758;2023-02-18T03:00:22;99892.47;;;13.79;100.00
7157;BME280;3620;49.862;8.758;2023-02-18T03:03:05;99893.81;;;13.88;100.00
7157;BME280;3620;49.862;8.758;2023-02-18T03:05:51;99906.81;;;13.74;100.00
7157;BME280;3620;49.862;8.758;2023-02-18T03:08:40;99906.38;;;13.83;100.00
7157;BME280;3620;49.862;8.758;2023-02-18T03:11:12;99894.38;;;13.76;100.00
7157;BME280;3620;49.862;8.758;2023-02-18T03:13:55;99893.59;;;13.74;100.00
7157;BME280;3620;49.862;8.758;2023-02-18T03:16:26;99894.69;;;13.70;100.00
7157;BME280;3620;49.862;8.758;2023-02-18T03:19:00;99902.75;;;13.85;100.00
7157;BME280;3620;49.862;8.758;2023-02-18T03:21:32;99902.63;;;13.70;100.00
7157;BME280;3620;49.862;8.758;2023-02-18T03:24:02;99906.41;;;13.64;100.00
7157;BME280;3620;49.862;8.758;2023-02-18T03:26:33;99907.84;;;13.53;100.00
7157;BME280;3620;49.862;8.758;2023-02-18T03:29:04;99909.84;;;13.48;100.00
7157;BME280;3620;49.862;8.758;2023-02-18T03:31:34;99908.78;;;13.33;100.00
7157;BME280;3620;49.862;8.758;2023-02-18T03:34:04;99912.13;;;13.37;100.00
7157;BME280;3620;49.862;8.758;2023-02-18T03:36:34;99903.19;;;13.76;100.00
7157;BME280;3620;49.862;8.758;2023-02-18T03:39:04;99898.84;;;13.57;100.00
7157;BME280;3620;49.862;8.758;2023-02-18T03:41:33;99906.13;;;13.52;100.00
7157;BME280;3620;49.862;8.758;2023-02-18T03:44:04;99897.25;;;13.71;100.00
7157;BME280;3620;49.862;8.758;2023-02-18T03:46:32;99895.75;;;13.47;100.00
7157;BME280;3620;49.862;8.758;2023-02-18T03:48:59;99909.41;;;13.57;100.00
7157;BME280;3620;49.862;8.758;2023-02-18T03:51:27;99909.41;;;13.57;100.00
7157;BME280;3620;49.862;8.758;2023-02-18T03:53:55;99899.81;;;13.36;100.00
7157;BME280;3620;49.862;8.758;2023-02-18T03:56:21;99906.00;;;13.55;100.00
7157;BME280;3620;49.862;8.758;2023-02-18T03:58:48;99913.19;;;13.51;100.00
7157;BME280;3620;49.862;8.758;2023-02-18T04:01:15;99909.03;;;13.27;100.00
7157;BME280;3620;49.862;8.758;2023-02-18T04:03:42;99900.28;;;13.27;100.00
7157;BME280;3620;49.862;8.758;2023-02-18T04:06:09;99904.31;;;13.34;100.00
7157;BME280;3620;49.862;8.758;2023-02-18T04:08:35;99901.25;;;13.43;100.00
7157;BME280;3620;49.862;8.758;2023-02-18T04:11:04;99908.06;;;13.48;100.00
7157;BME280;3620;49.862;8.758;2023-02-18T04:13:30;99911.78;;;13.44;100.00
7157;BME280;3620;49.862;8.758;2023-02-18T04:15:57;99912.41;;;13.31;100.00
7157;BME280;3620;49.862;8.758;2023-02-18T04:18:23;99908.25;;;13.62;100.00
7157;BME280;3620;49.862;8.758;2023-02-18T04:20:51;99906.47;;;13.63;100.00
7157;BME280;3620;49.862;8.758;2023-02-18T04:23:17;99907.59;;;13.94;100.00
7157;BME280;3620;49.862;8.758;2023-02-18T04:25:44;99907.25;;;13.83;100.00
7157;BME280;3620;49.862;8.758;2023-02-18T04:28:13;99897.75;;;13.61;100.00
7157;BME280;3620;49.862;8.758;2023-02-18T04:30:41;99907.91;;;13.33;100.00
7157;BME280;3620;49.862;8.758;2023-02-18T04:33:07;99906.47;;;13.26;100.00
7157;BME280;3620;49.862;8.758;2023-02-18T04:35:34;99890.13;;;13.17;100.00
7157;BME280;3620;49.862;8.758;2023-02-18T04:38:02;99907.13;;;13.31;100.00
7157;BME280;3620;49.862;8.758;2023-02-18T04:40:29;99897.50;;;13.09;100.00
7157;BME280;3620;49.862;8.758;2023-02-18T04:42:55;99893.22;;;13.07;100.00
7157;BME280;3620;49.862;8.758;2023-02-18T04:45:24;99891.69;;;13.21;100.00
7157;BME280;3620;49.862;8.758;2023-02-18T04:47:51;99891.38;;;13.09;100.00
7157;BME280;3620;49.862;8.758;2023-02-18T04:50:19;99893.16;;;12.88;100.00
7157;BME280;3620;49.862;8.758;2023-02-18T04:52:45;99883.75;;;13.01;100.00
7157;BME280;3620;49.862;8.758;2023-02-18T04:55:12;99892.88;;;12.94;100.00
7157;BME280;3620;49.862;8.758;2023-02-18T04:57:38;99897.09;;;13.18;100.00
7157;BME280;3620;49.862;8.758;2023-02-18T05:00:07;99904.75;;;13.04;100.00
7157;BME280;3620;49.862;8.758;2023-02-18T05:02:35;99909.63;;;12.93;100.00
7157;BME280;3620;49.862;8.758;2023-02-18T05:05:02;99913.88;;;12.97;100.00
7157;BME280;3620;49.862;8.758;2023-02-18T05:07:28;99924.47;;;13.36;100.00
7157;BME280;3620;49.862;8.758;2023-02-18T05:09:55;99909.97;;;13.26;100.00
7157;BME280;3620;49.862;8.758;2023-02-18T05:12:21;99906.97;;;13.34;100.00
7157;BME280;3620;49.862;8.758;2023-02-18T05:14:48;99900.84;;;13.33;100.00
7157;BME280;3620;49.862;8.758;2023-02-18T05:17:14;99904.25;;;13.16;100.00
7157;BME280;3620;49.862;8.758;2023-02-18T05:19:43;99901.38;;;13.21;100.00
7157;BME280;3620;49.862;8.758;2023-02-18T05:22:10;99898.28;;;13.50;100.00
7157;BME280;3620;49.862;8.758;2023-02-18T05:24:36;99891.94;;;13.15;100.00
7157;BME280;3620;49.862;8.758;2023-02-18T05:27:03;99895.81;;;13.08;100.00
7157;BME280;3620;49.862;8.758;2023-02-18T05:29:29;99883.59;;;13.24;100.00
7157;BME280;3620;49.862;8.758;2023-02-18T05:31:56;99876.09;;;13.15;100.00
7157;BME280;3620;49.862;8.758;2023-02-18T05:34:22;99877.63;;;13.01;99.39
7157;BME280;3620;49.862;8.758;2023-02-18T05:36:50;99885.41;;;13.04;99.55
7157;BME280;3620;49.862;8.758;2023-02-18T05:39:17;99871.34;;;13.03;98.97
7157;BME280;3620;49.862;8.758;2023-02-18T05:41:43;99868.44;;;12.71;100.00
7157;BME280;3620;49.862;8.758;2023-02-18T05:44:10;99868.34;;;12.92;99.42
7157;BME280;3620;49.862;8.758;2023-02-18T05:46:54;99860.31;;;12.75;100.00
7157;BME280;3620;49.862;8.758;2023-02-18T05:49:20;99856.31;;;12.85;99.34
7157;BME280;3620;49.862;8.758;2023-02-18T05:51:47;99854.47;;;12.87;100.00
7157;BME280;3620;49.862;8.758;2023-02-18T05:54:15;99860.91;;;13.00;98.75
7157;BME280;3620;49.862;8.758;2023-02-18T05:56:41;99842.69;;;13.14;96.30
7157;BME280;3620;49.862;8.758;2023-02-18T05:59:08;99852.94;;;13.02;96.83
7157;BME280;3620;49.862;8.758;2023-02-18T06:01:34;99852.91;;;12.83;96.75
7157;BME280;3620;49.862;8.758;2023-02-18T06:04:01;99856.19;;;12.88;96.09
7157;BME280;3620;49.862;8.758;2023-02-18T06:06:27;99850.00;;;12.69;97.02
7157;BME280;3620;49.862;8.758;2023-02-18T06:08:54;99848.63;;;12.40;96.75
7157;BME280;3620;49.862;8.758;2023-02-18T06:11:22;99845.78;;;12.65;95.84
7157;BME280;3620;49.862;8.758;2023-02-18T06:13:48;99838.63;;;12.48;95.04
7157;BME280;3620;49.862;8.758;2023-02-18T06:16:15;99844.72;;;12.49;93.70
7157;BME280;3620;49.862;8.758;2023-02-18T06:18:41;99845.34;;;12.35;93.30
7157;BME280;3620;49.862;8.758;2023-02-18T06:21:08;99835.09;;;12.68;92.09
7157;BME280;3620;49.862;8.758;2023-02-18T06:23:34;99828.25;;;12.44;91.07
7157;BME280;3620;49.862;8.758;2023-02-18T06:26:01;99819.34;;;12.46;90.96
7157;BME280;3620;49.862;8.758;2023-02-18T06:28:29;99837.47;;;12.34;90.71
7157;BME280;3620;49.862;8.758;2023-02-18T06:30:56;99846.56;;;12.27;91.56
7157;BME280;3620;49.862;8.758;2023-02-18T06:33:24;99827.31;;;12.25;91.31
7157;BME280;3620;49.862;8.758;2023-02-18T06:35:54;99846.13;;;12.37;90.48
7157;BME280;3620;49.862;8.758;2023-02-18T06:38:21;99833.94;;;12.35;90.56
7157;BME280;3620;49.862;8.758;2023-02-18T06:40:48;99848.59;;;12.42;89.92
7157;BME280;3620;49.862;8.758;2023-02-18T06:43:14;99845.28;;;12.57;89.42
7157;BME280;3620;49.862;8.758;2023-02-18T06:45:42;99860.31;;;12.75;88.27
7157;BME280;3620;49.862;8.758;2023-02-18T06:48:09;99868.34;;;12.52;88.55
7157;BME280;3620;49.862;8.758;2023-02-18T06:50:36;99860.72;;;12.66;88.06
7157;BME280;3620;49.862;8.758;2023-02-18T06:53:02;99861.69;;;12.64;88.24
7157;BME280;3620;49.862;8.758;2023-02-18T06:55:29;99860.94;;;12.60;88.07
7157;BME280;3620;49.862;8.758;2023-02-18T06:57:55;99872.19;;;12.65;87.88
7157;BME280;3620;49.862;8.758;2023-02-18T07:00:22;99840.81;;;12.78;87.70
7157;BME280;3620;49.862;8.758;2023-02-18T07:02:50;99860.53;;;12.89;86.95
7157;BME280;3620;49.862;8.758;2023-02-18T07:05:17;99860.69;;;13.06;85.65
7157;BME280;3620;49.862;8.758;2023-02-18T07:07:43;99848.06;;;12.93;86.79
7157;BME280;3620;49.862;8.758;2023-02-18T07:10:10;99847.91;;;12.77;87.94
7157;BME280;3620;49.862;8.758;2023-02-18T07:12:36;99854.44;;;12.69;88.76
7157;BME280;3620;49.862;8.758;2023-02-18T07:15:04;99844.47;;;12.75;89.75
7157;BME280;3620;49.862;8.758;2023-02-18T07:17:30;99851.31;;;12.79;89.18
7157;BME280;3620;49.862;8.758;2023-02-18T07:19:58;99833.06;;;12.93;89.66
7157;BME280;3620;49.862;8.758;2023-02-18T07:22:25;99832.06;;;12.77;90.02
7157;BME280;3620;49.862;8.758;2023-02-18T07:24:52;99828.22;;;12.84;89.54
7157;BME280;3620;49.862;8.758;2023-02-18T07:27:18;99819.47;;;12.82;89.84
7157;BME280;3620;49.862;8.758;2023-02-18T07:29:45;99821.78;;;12.90;89.46
7157;BME280;3620;49.862;8.758;2023-02-18T07:32:13;99824.50;;;12.88;89.91
7157;BME280;3620;49.862;8.758;2023-02-18T07:34:39;99815.28;;;12.78;89.35
7157;BME280;3620;49.862;8.758;2023-02-18T07:37:07;99820.34;;;12.64;91.52
7157;BME280;3620;49.862;8.758;2023-02-18T07:39:34;99818.06;;;12.75;90.15
7157;BME280;3620;49.862;8.758;2023-02-18T07:42:01;99807.97;;;13.03;88.90
7157;BME280;3620;49.862;8.758;2023-02-18T07:44:28;99813.78;;;12.91;89.93
7157;BME280;3620;49.862;8.758;2023-02-18T07:46:55;99814.84;;;13.07;88.33
7157;BME280;3620;49.862;8.758;2023-02-18T07:49:22;99827.16;;;12.88;89.75
7157;BME280;3620;49.862;8.758;2023-02-18T07:51:48;99819.81;;;12.95;89.10
7157;BME280;3620;49.862;8.758;2023-02-18T07:54:16;99811.41;;;13.05;89.06
7157;BME280;3620;49.862;8.758;2023-02-18T07:56:43;99813.22;;;13.23;88.09
7157;BME280;3620;49.862;8.758;2023-02-18T07:59:11;99827.13;;;13.08;88.70
7157;BME280;3620;49.862;8.758;2023-02-18T08:01:38;99820.56;;;13.17;88.49
7157;BME280;3620;49.862;8.758;2023-02-18T08:04:04;99813.00;;;12.89;88.77
7157;BME280;3620;49.862;8.758;2023-02-18T08:06:34;99817.09;;;12.96;88.05
7157;BME280;3620;49.862;8.758;2023-02-18T08:09:01;99820.50;;;12.80;89.30
7157;BME280;3620;49.862;8.758;2023-02-18T08:11:30;99825.78;;;12.98;89.74
7157;BME280;3620;49.862;8.758;2023-02-18T08:13:57;99814.47;;;12.76;90.96
7157;BME280;3620;49.862;8.758;2023-02-18T08:16:24;99805.75;;;12.94;90.22
7157;BME280;3620;49.862;8.758;2023-02-18T08:18:51;99804.94;;;13.12;88.96
7157;BME280;3620;49.862;8.758;2023-02-18T08:21:19;99794.38;;;12.92;89.29
7157;BME280;3620;49.862;8.758;2023-02-18T08:23:47;99793.56;;;13.10;89.04
7157;BME280;3620;49.862;8.758;2023-02-18T08:26:14;99789.56;;;13.20;87.67
7157;BME280;3620;49.862;8.758;2023-02-18T08:28:42;99792.63;;;13.11;87.25
7157;BME280;3620;49.862;8.758;2023-02-18T08:31:15;99771.81;;;12.85;88.36
7157;BME280;3620;49.862;8.758;2023-02-18T08:33:42;99776.25;;;13.03;87.14
7157;BME280;3620;49.862;8.758;2023-02-18T08:36:09;99792.50;;;13.14;86.08
7157;BME280;3620;49.862;8.758;2023-02-18T08:38:35;99795.97;;;13.52;84.48
7157;BME280;3620;49.862;8.758;2023-02-18T08:41:03;99774.91;;;13.13;85.76
7157;BME280;3620;49.862;8.758;2023-02-18T08:43:30;99781.41;;;13.25;84.03
7157;BME280;3620;49.862;8.758;2023-02-18T08:45:58;99774.81;;;12.96;85.47
7157;BME280;3620;49.862;8.758;2023-02-18T08:48:25;99776.44;;;13.38;83.71
7157;BME280;3620;49.862;8.758;2023-02-18T08:50:52;99793.69;;;13.45;81.51
7157;BME280;3620;49.862;8.758;2023-02-18T08:53:19;99790.75;;;13.51;80.42
7157;BME280;3620;49.862;8.758;2023-02-18T08:55:45;99795.34;;;13.10;80.95
7157;BME280;3620;49.862;8.758;2023-02-18T08:58:12;99798.28;;;13.22;80.30
7157;BME280;3620;49.862;8.758;2023-02-18T09:00:40;99789.88;;;12.94;79.54
7157;BME280;3620;49.862;8.758;2023-02-18T09:03:11;99806.34;;;13.19;79.78
7157;BME280;3620;49.862;8.758;2023-02-18T09:05:38;99802.00;;;13.18;78.17
7157;BME280;3620;49.862;8.758;2023-02-18T09:08:04;99793.25;;;13.54;75.79
7157;BME280;3620;49.862;8.758;2023-02-18T09:10:31;99797.28;;;13.79;74.31
7157;BME280;3620;49.862;8.758;2023-02-18T09:12:58;99811.63;;;13.74;73.68
7157;BME280;3620;49.862;8.758;2023-02-18T09:15:24;99811.34;;;13.44;74.16
7157;BME280;3620;49.862;8.758;2023-02-18T09:17:51;99806.78;;;13.65;74.58
7157;BME280;3620;49.862;8.758;2023-02-18T09:20:19;99805.38;;;13.58;74.30
7157;BME280;3620;49.862;8.758;2023-02-18T09:22:45;99804.09;;;13.66;74.22
7157;BME280;3620;49.862;8.758;2023-02-18T09:25:12;99783.44;;;13.56;73.80
7157;BME280;3620;49.862;8.758;2023-02-18T09:27:38;99802.78;;;13.75;74.04
7157;BME280;3620;49.862;8.758;2023-02-18T09:30:06;99799.22;;;13.93;73.03
7157;BME280;3620;49.862;8.758;2023-02-18T09:32:33;99816.25;;;14.05;72.63
7157;BME280;3620;49.862;8.758;2023-02-18T09:34:59;99822.09;;;13.94;72.30
7157;BME280;3620;49.862;8.758;2023-02-18T09:37:28;99813.81;;;13.83;73.24
7157;BME280;3620;49.862;8.758;2023-02-18T09:39:55;99814.00;;;13.97;72.91
7157;BME280;3620;49.862;8.758;2023-02-18T09:42:25;99808.16;;;13.90;72.71
7157;BME280;3620;49.862;8.758;2023-02-18T09:44:55;99820.69;;;13.87;72.06
7157;BME280;3620;49.862;8.758;2023-02-18T09:47:28;99822.66;;;13.65;73.77
7157;BME280;3620;49.862;8.758;2023-02-18T09:49:57;99812.59;;;13.90;72.94
7157;BME280;3620;49.862;8.758;2023-02-18T09:52:30;99823.25;;;13.88;73.14
7157;BME280;3620;49.862;8.758;2023-02-18T09:54:57;99805.66;;;14.05;72.15
7157;BME280;3620;49.862;8.758;2023-02-18T09:57:26;99805.44;;;13.75;72.54
7157;BME280;3620;49.862;8.758;2023-02-18T09:59:58;99795.28;;;13.66;73.04
7157;BME280;3620;49.862;8.758;2023-02-18T10:02:26;99795.19;;;13.86;72.74
7157;BME280;3620;49.862;8.758;2023-02-18T10:04:54;99818.03;;;13.87;72.82
7157;BME280;3620;49.862;8.758;2023-02-18T10:07:25;99819.13;;;13.83;72.75
7157;BME280;3620;49.862;8.758;2023-02-18T10:09:56;99841.03;;;13.68;73.56
7157;BME280;3620;49.862;8.758;2023-02-18T10:12:25;99817.25;;;13.85;72.85
7157;BME280;3620;49.862;8.758;2023-02-18T10:14:54;99834.00;;;14.03;72.00
7157;BME280;3620;49.862;8.758;2023-02-18T10:17:23;99817.03;;;13.89;72.18
7157;BME280;3620;49.862;8.758;2023-02-18T10:19:53;99831.44;;;14.18;70.71
7157;BME280;3620;49.862;8.758;2023-02-18T10:22:21;99829.03;;;14.14;71.37
7157;BME280;3620;49.862;8.758;2023-02-18T10:24:50;99848.88;;;14.05;71.36
7157;BME280;3620;49.862;8.758;2023-02-18T10:27:23;99845.31;;;14.23;70.95
7157;BME280;3620;49.862;8.758;2023-02-18T10:29:50;99841.56;;;14.10;70.92
7157;BME280;3620;49.862;8.758;2023-02-18T10:32:21;99843.84;;;14.18;69.97
7157;BME280;3620;49.862;8.758;2023-02-18T10:34:51;99837.22;;;14.26;69.83
7157;BME280;3620;49.862;8.758;2023-02-18T10:37:29;99838.94;;;14.44;69.38
7157;BME280;3620;49.862;8.758;2023-02-18T10:40:08;99832.09;;;14.57;68.18
7157;BME280;3620;49.862;8.758;2023-02-18T10:42:44;99828.91;;;14.51;68.76
7157;BME280;3620;49.862;8.758;2023-02-18T10:45:21;99832.25;;;14.54;67.50
7157;BME280;3620;49.862;8.758;2023-02-18T10:51:36;99810.91;;;14.40;67.66
7157;BME280;3620;49.862;8.758;2023-02-18T10:54:09;99817.31;;;14.36;67.52
7157;BME280;3620;49.862;8.758;2023-02-18T10:58:20;99811.88;;;14.39;67.24
7157;BME280;3620;49.862;8.758;2023-02-18T11:00:18;99806.09;;;14.48;67.54
7157;BME280;3620;49.862;8.758;2023-02-18T11:03:14;99819.41;;;14.30;67.67
7157;BME280;3620;49.862;8.758;2023-02-18T11:05:42;99818.66;;;14.09;68.20
7157;BME280;3620;49.862;8.758;2023-02-18T11:08:13;99806.06;;;14.14;68.93
7157;BME280;3620;49.862;8.758;2023-02-18T11:10:43;99808.53;;;14.00;68.36
7157;BME280;3620;49.862;8.758;2023-02-18T11:13:13;99818.56;;;13.93;69.78
7157;BME280;3620;49.862;8.758;2023-02-18T11:15:54;99810.28;;;14.01;69.52
7157;BME280;3620;49.862;8.758;2023-02-18T11:18:29;99788.16;;;13.85;69.73
7157;BME280;3620;49.862;8.758;2023-02-18T11:20:59;99798.91;;;13.82;69.99
7157;BME280;3620;49.862;8.758;2023-02-18T11:23:26;99800.66;;;13.64;70.10
7157;BME280;3620;49.862;8.758;2023-02-18T11:25:55;99784.13;;;13.95;70.04
7157;BME280;3620;49.862;8.758;2023-02-18T11:28:30;99780.25;;;14.02;69.05
7157;BME280;3620;49.862;8.758;2023-02-18T11:31:00;99784.38;;;14.08;69.49
7157;BME280;3620;49.862;8.758;2023-02-18T11:33:33;99786.00;;;14.27;69.81
7157;BME280;3620;49.862;8.758;2023-02-18T11:36:04;99770.00;;;14.30;68.64
7157;BME280;3620;49.862;8.758;2023-02-18T11:38:42;99767.47;;;14.10;69.27
7157;BME280;3620;49.862;8.758;2023-02-18T11:41:12;99773.88;;;14.06;69.98
7157;BME280;3620;49.862;8.758;2023-02-18T11:43:41;99764.22;;;14.05;70.54
7157;BME280;3620;49.862;8.758;2023-02-18T11:46:12;99769.25;;;14.27;70.05
7157;BME280;3620;49.862;8.758;2023-02-18T11:48:45;99761.00;;;14.16;69.76
7157;BME280;3620;49.862;8.758;2023-02-18T11:51:16;99762.19;;;13.93;69.92
7157;BME280;3620;49.862;8.758;2023-02-18T11:53:57;99757.50;;;13.98;69.32
7157;BME280;3620;49.862;8.758;2023-02-18T11:56:26;99764.69;;;14.30;67.94
7157;BME280;3620;49.862;8.758;2023-02-18T11:58:53;99764.38;;;14.36;67.40
7157;BME280;3620;49.862;8.758;2023-02-18T12:01:27;99766.53;;;14.11;67.82
7157;BME280;3620;49.862;8.758;2023-02-18T12:04:00;99763.72;;;13.80;69.13
7157;BME280;3620;49.862;8.758;2023-02-18T12:06:32;99763.91;;;13.77;68.94
7157;BME280;3620;49.862;8.758;2023-02-18T12:09:05;99756.75;;;13.79;69.37
7157;BME280;3620;49.862;8.758;2023-02-18T12:11:35;99766.31;;;13.98;68.05
7157;BME280;3620;49.862;8.758;2023-02-18T12:14:08;99750.03;;;13.89;69.21
7157;BME280;3620;49.862;8.758;2023-02-18T12:16:44;99749.72;;;13.78;69.85
7157;BME280;3620;49.862;8.758;2023-02-18T12:19:41;99747.53;;;13.69;70.19
7157;BME280;3620;49.862;8.758;2023-02-18T12:22:15;99747.84;;;13.80;70.23
7157;BME280;3620;49.862;8.758;2023-02-18T12:24:54;99733.56;;;13.84;69.50
7157;BME280;3620;49.862;8.758;2023-02-18T12:27:31;99739.91;;;13.80;70.08
7157;BME280;3620;49.862;8.758;2023-02-18T12:30:35;99732.25;;;13.92;69.79
7157;BME280;3620;49.862;8.758;2023-02-18T12:33:17;99727.97;;;13.90;69.73
7157;BME280;3620;49.862;8.758;2023-02-18T12:35:56;99727.50;;;13.99;70.43
7157;BME280;3620;49.862;8.758;2023-02-18T12:38:46;99720.19;;;14.04;69.98
7157;BME280;3620;49.862;8.758;2023-02-18T12:41:43;99715.25;;;14.14;69.66
7157;BME280;3620;49.862;8.758;2023-02-18T12:44:24;99701.97;;;13.81;70.88
7157;BME280;3620;49.862;8.758;2023-02-18T12:47:09;99705.16;;;14.05;70.13
7157;BME280;3620;49.862;8.758;2023-02-18T12:49:51;99712.00;;;14.09;70.07
7157;BME280;3620;49.862;8.758;2023-02-18T12:52:34;99695.28;;;14.08;69.49
7157;BME280;3620;49.862;8.758;2023-02-18T12:55:22;99692.88;;;14.04;70.27
7157;BME280;3620;49.862;8.758;2023-02-18T12:58:00;99683.28;;;14.01;70.00
7157;BME280;3620;49.862;8.758;2023-02-18T13:00:40;99681.56;;;14.00;70.92
7157;BME280;3620;49.862;8.758;2023-02-18T13:03:41;99679.69;;;14.36;69.62
7157;BME280;3620;49.862;8.758;2023-02-18T13:06:21;99690.81;;;14.26;70.20
7157;BME280;3620;49.862;8.758;2023-02-18T13:08:59;99698.25;;;14.52;69.33
7157;BME280;3620;49.862;8.758;2023-02-18T13:11:38;99699.38;;;14.63;69.23
7157;BME280;3620;49.862;8.758;2023-02-18T13:14:10;99701.28;;;14.93;68.38
7157;BME280;3620;49.862;8.758;2023-02-18T13:16:40;99691.00;;;14.55;69.09
7157;BME280;3620;49.862;8.758;2023-02-18T13:19:15;99696.78;;;14.46;69.78
7157;BME280;3620;49.862;8.758;2023-02-18T13:21:47;99699.72;;;14.57;69.78
7157;BME280;3620;49.862;8.758;2023-02-18T13:24:20;99690.28;;;14.52;69.42
7157;BME280;3620;49.862;8.758;2023-02-18T13:26:51;99696.19;;;14.41;69.80
7157;BME280;3620;49.862;8.758;2023-02-18T13:29:27;99691.22;;;14.35;70.52
7157;BME280;3620;49.862;8.758;2023-02-18T13:32:03;99695.94;;;14.29;70.46
7157;BME280;3620;49.862;8.758;2023-02-18T13:34:41;99684.38;;;14.14;71.26
7157;BME280;3620;49.862;8.758;2023-02-18T13:37:18;99692.03;;;14.36;70.12
7157;BME280;3620;49.862;8.758;2023-02-18T13:39:48;99705.28;;;14.36;71.00
7157;BME280;3620;49.862;8.758;2023-02-18T13:42:29;99696.78;;;14.46;70.55